createdAt,value
2023-03-12T00:00:42.820Z,0.98
2023-03-12T00:03:40.766Z,1.03
2023-03-12T00:06:33.179Z,1.17
2023-03-12T00:09:25.219Z,1.20
2023-03-12T00:12:17.213Z,1.25
2023-03-12T00:15:11.259Z,1.33
2023-03-12T00:18:03.228Z,1.43
2023-03-12T00:20:58.645Z,1.50
2023-03-12T00:23:52.486Z,1.53
2023-03-12T00:26:44.758Z,1.56
2023-03-12T00:29:37.012Z,1.57
2023-03-12T00:32:29.236Z,1.59
2023-03-12T00:35:11.491Z,1.56
2023-03-12T00:38:03.777Z,1.52
2023-03-12T00:40:55.989Z,1.50
2023-03-12T00:43:48.534Z,1.44
2023-03-12T00:46:40.551Z,1.37
2023-03-12T00:49:32.721Z,1.30
2023-03-12T00:52:24.884Z,1.31
2023-03-12T00:55:16.987Z,1.32
2023-03-12T00:58:08.981Z,1.32
2023-03-12T01:01:01.199Z,1.28
2023-03-12T01:03:54.121Z,1.22
2023-03-12T01:06:46.391Z,1.16
2023-03-12T01:09:38.961Z,1.14
2023-03-12T01:12:31.059Z,1.12
2023-03-12T01:15:23.344Z,1.11
2023-03-12T01:18:15.448Z,1.06
2023-03-12T01:21:08.342Z,1.04
2023-03-12T01:24:00.450Z,0.95
2023-03-12T01:26:52.707Z,0.97
2023-03-12T01:29:44.802Z,0.97
2023-03-12T01:32:36.881Z,1.01
2023-03-12T01:35:29.049Z,1.02
2023-03-12T01:38:21.148Z,1.01
2023-03-12T01:41:13.135Z,0.97
2023-03-12T01:44:06.601Z,0.91
2023-03-12T01:46:58.610Z,0.87
2023-03-12T01:49:51.615Z,0.83
2023-03-12T01:52:43.755Z,0.84
2023-03-12T01:55:35.908Z,0.79
2023-03-12T01:58:30.334Z,0.74
2023-03-12T02:01:23.255Z,0.69
2023-03-12T02:04:17.293Z,0.64
2023-03-12T02:07:12.332Z,0.61
2023-03-12T02:10:05.448Z,0.55
2023-03-12T02:12:57.603Z,0.50
2023-03-12T02:15:49.687Z,0.45
2023-03-12T02:18:41.889Z,0.40
2023-03-12T02:21:37.187Z,0.36
2023-03-12T02:24:35.095Z,0.33
2023-03-12T02:27:27.272Z,0.26
2023-03-12T02:30:20.535Z,0.20
2023-03-12T02:33:15.051Z,0.16
2023-03-12T02:36:09.140Z,0.24
2023-03-12T02:39:01.164Z,0.22
2023-03-12T02:41:55.295Z,0.23
2023-03-12T02:44:50.423Z,0.23
2023-03-12T02:47:42.471Z,0.28
2023-03-12T02:50:34.475Z,0.30
2023-03-12T02:53:26.512Z,0.31
2023-03-12T02:56:18.486Z,0.30
2023-03-12T02:59:11.794Z,0.28
2023-03-12T03:02:04.451Z,0.25
2023-03-12T03:04:56.509Z,0.22
2023-03-12T03:07:48.559Z,0.18
2023-03-12T03:10:40.604Z,0.13
2023-03-12T03:13:32.692Z,0.05
2023-03-12T03:16:25.521Z,-0.02
2023-03-12T03:19:17.547Z,-0.07
2023-03-12T03:22:09.584Z,-0.11
2023-03-12T03:25:01.631Z,-0.17
2023-03-12T03:27:53.741Z,-0.24
2023-03-12T03:30:45.782Z,-0.28
2023-03-12T03:33:39.656Z,-0.32
2023-03-12T03:36:31.720Z,-0.32
2023-03-12T03:39:25.190Z,-0.35
2023-03-12T03:42:17.226Z,-0.38
2023-03-12T03:45:11.467Z,-0.40
2023-03-12T03:48:03.666Z,-0.30
2023-03-12T03:50:56.165Z,-0.27
2023-03-12T03:53:48.193Z,-0.23
2023-03-12T03:56:40.897Z,-0.20
2023-03-12T03:59:33.126Z,-0.17
2023-03-12T04:02:25.295Z,-0.14
2023-03-12T04:05:19.575Z,-0.17
2023-03-12T04:08:12.101Z,-0.15
2023-03-12T04:11:10.103Z,-0.11
2023-03-12T04:14:02.089Z,-0.09
2023-03-12T04:16:54.111Z,-0.11
2023-03-12T04:19:46.199Z,-0.15
2023-03-12T04:22:38.419Z,-0.20
2023-03-12T04:25:30.490Z,-0.23
2023-03-12T04:28:22.477Z,-0.29
2023-03-12T04:31:14.897Z,-0.35
2023-03-12T04:34:06.877Z,-0.39
2023-03-12T04:36:58.981Z,-0.42
2023-03-12T04:39:51.284Z,-0.48
2023-03-12T04:42:43.292Z,-0.51
2023-03-12T04:45:35.292Z,-0.53
2023-03-12T04:48:27.989Z,-0.55
2023-03-12T04:51:19.988Z,-0.59
2023-03-12T04:54:12.138Z,-0.62
2023-03-12T04:57:04.310Z,-0.64
2023-03-12T04:59:56.570Z,-0.68
2023-03-12T05:02:48.433Z,-0.70
2023-03-12T05:05:40.560Z,-0.72
2023-03-12T05:08:32.515Z,-0.70
2023-03-12T05:11:25.083Z,-0.67
2023-03-12T05:14:17.050Z,-0.67
2023-03-12T05:17:09.120Z,-0.65
2023-03-12T05:20:01.467Z,-0.62
2023-03-12T05:22:53.477Z,-0.57
2023-03-12T05:25:45.457Z,-0.52
2023-03-12T05:28:37.432Z,-0.44
2023-03-12T05:31:33.228Z,-0.37
2023-03-12T05:34:25.281Z,-0.34
2023-03-12T05:37:17.345Z,-0.29
2023-03-12T05:40:13.798Z,-0.25
2023-03-12T05:43:05.933Z,-0.18
2023-03-12T05:46:02.068Z,-0.11
2023-03-12T05:48:54.498Z,-0.07
2023-03-12T05:51:47.758Z,-0.01
2023-03-12T05:54:39.989Z,0.05
2023-03-12T05:57:32.069Z,0.12
2023-03-12T06:00:25.110Z,0.17
2023-03-12T06:03:17.388Z,0.23
2023-03-12T06:06:09.771Z,0.30
2023-03-12T06:09:01.883Z,0.38
2023-03-12T06:11:54.029Z,0.48
2023-03-12T06:14:46.080Z,0.56
2023-03-12T06:17:38.258Z,0.62
2023-03-12T06:20:30.328Z,0.62
2023-03-12T06:23:22.394Z,0.63
2023-03-12T06:26:00.412Z,0.69
2023-03-12T06:28:53.448Z,0.74
2023-03-12T06:31:45.636Z,0.81
2023-03-12T06:34:37.800Z,0.85
2023-03-12T06:37:30.308Z,0.89
2023-03-12T06:40:22.930Z,0.92
2023-03-12T06:43:14.903Z,1.01
2023-03-12T06:46:08.681Z,1.16
2023-03-12T06:49:00.689Z,1.22
2023-03-12T06:51:52.712Z,1.34
2023-03-12T06:54:45.170Z,1.47
2023-03-12T06:57:37.702Z,1.56
2023-03-12T07:00:15.014Z,1.66
2023-03-12T07:02:51.960Z,1.78
2023-03-12T07:05:46.828Z,1.82
2023-03-12T07:08:39.140Z,1.82
2023-03-12T07:11:31.273Z,1.88
2023-03-12T07:14:23.563Z,2.05
2023-03-12T07:17:15.729Z,2.23
2023-03-12T07:20:09.680Z,2.30
2023-03-12T07:23:03.040Z,2.31
2023-03-12T07:25:55.765Z,2.34
2023-03-12T07:28:48.246Z,2.41
2023-03-12T07:31:40.720Z,2.64
2023-03-12T07:34:33.025Z,2.83
2023-03-12T07:37:25.624Z,2.86
2023-03-12T07:40:18.598Z,2.83
2023-03-12T07:43:12.754Z,2.90
2023-03-12T07:46:05.101Z,2.98
2023-03-12T07:48:57.419Z,3.11
2023-03-12T07:51:50.224Z,3.17
2023-03-12T07:54:42.766Z,3.17
2023-03-12T07:57:35.216Z,3.36
2023-03-12T08:00:28.672Z,3.53
2023-03-12T08:03:21.395Z,4.21
2023-03-12T08:06:13.757Z,6.99
2023-03-12T08:08:54.986Z,10.40
2023-03-12T08:11:47.265Z,13.31
2023-03-12T08:14:39.713Z,15.44
2023-03-12T08:17:31.871Z,16.54
2023-03-12T08:20:24.158Z,17.78
2023-03-12T08:23:16.302Z,18.96
2023-03-12T08:26:08.671Z,20.16
2023-03-12T08:29:01.284Z,21.48
2023-03-12T08:32:04.195Z,22.32
2023-03-12T08:34:57.687Z,22.90
2023-03-12T08:37:50.150Z,23.81
2023-03-12T08:40:42.561Z,24.25
2023-03-12T08:43:34.711Z,24.82
2023-03-12T08:46:26.847Z,25.35
2023-03-12T08:49:08.315Z,25.94
2023-03-12T08:52:00.780Z,26.46
2023-03-12T08:54:53.232Z,26.98
2023-03-12T08:57:45.586Z,27.50
2023-03-12T09:00:37.707Z,26.46
2023-03-12T09:03:29.846Z,26.20
2023-03-12T09:06:22.224Z,24.35
2023-03-12T09:09:05.184Z,23.61
2023-03-12T09:11:57.488Z,22.22
2023-03-12T09:15:02.992Z,20.93
2023-03-12T09:17:56.503Z,21.62
2023-03-12T09:20:48.821Z,22.58
2023-03-12T09:23:40.862Z,24.02
2023-03-12T09:26:32.891Z,24.13
2023-03-12T09:29:24.948Z,22.73
2023-03-12T09:32:17.249Z,22.94
2023-03-12T09:34:49.389Z,23.77
2023-03-12T09:37:41.508Z,22.31
2023-03-12T09:40:39.913Z,20.99
2023-03-12T09:43:38.488Z,21.27
2023-03-12T09:46:42.331Z,22.60
2023-03-12T09:49:40.613Z,24.07
2023-03-12T09:52:36.852Z,25.92
2023-03-12T09:55:35.839Z,27.21
2023-03-12T09:58:18.368Z,27.77
2023-03-12T10:01:26.470Z,28.16
2023-03-12T10:04:37.819Z,27.80
2023-03-12T10:07:43.975Z,28.03
2023-03-12T10:10:50.900Z,29.15
2023-03-12T10:13:44.937Z,29.63
2023-03-12T10:16:50.221Z,30.08
2023-03-12T10:19:56.923Z,30.05
2023-03-12T10:22:56.713Z,28.54
2023-03-12T10:25:37.459Z,27.05
2023-03-12T10:28:35.556Z,24.97
2023-03-12T10:31:31.973Z,23.31
2023-03-12T10:34:16.559Z,24.22
2023-03-12T10:37:18.331Z,26.32
2023-03-12T10:43:25.324Z,22.16
2023-03-12T10:46:40.290Z,20.62
2023-03-12T10:49:37.738Z,18.76
2023-03-12T10:52:29.796Z,17.32
2023-03-12T10:55:27.454Z,19.10
2023-03-12T10:58:27.316Z,21.36
2023-03-12T11:01:25.597Z,21.85
2023-03-12T11:04:23.118Z,20.50
2023-03-12T11:07:27.699Z,19.46
2023-03-12T11:10:24.954Z,18.90
2023-03-12T11:13:32.040Z,20.72
2023-03-12T11:16:31.972Z,21.27
2023-03-12T11:19:31.967Z,19.99
2023-03-12T11:22:35.545Z,19.72
2023-03-12T11:25:31.754Z,19.29
2023-03-12T11:28:16.240Z,19.64
2023-03-12T11:31:16.967Z,20.44
2023-03-12T11:34:15.796Z,19.88
2023-03-12T11:37:27.286Z,18.96
2023-03-12T11:40:39.133Z,17.99
2023-03-12T11:43:47.780Z,17.72
2023-03-12T11:46:52.299Z,17.99
2023-03-12T11:50:15.691Z,17.43
2023-03-12T11:53:30.705Z,16.38
2023-03-12T11:56:30.635Z,16.51
2023-03-12T11:59:37.239Z,17.06
2023-03-12T12:02:45.538Z,16.84
2023-03-12T12:05:50.413Z,16.41
2023-03-12T12:09:09.020Z,16.43
2023-03-12T12:12:14.795Z,17.09
2023-03-12T12:15:02.051Z,17.45
2023-03-12T12:18:04.123Z,17.07
2023-03-12T12:21:02.362Z,16.45
2023-03-12T12:24:01.510Z,16.26
2023-03-12T12:27:01.282Z,16.02
2023-03-12T12:30:10.395Z,16.19
2023-03-12T12:33:30.747Z,16.31
2023-03-12T12:36:24.943Z,16.80
2023-03-12T12:39:23.284Z,16.94
2023-03-12T12:42:22.306Z,17.43
2023-03-12T12:45:17.895Z,17.16
2023-03-12T12:48:15.518Z,16.67
2023-03-12T12:50:52.252Z,16.79
2023-03-12T12:53:56.618Z,17.56
2023-03-12T12:56:53.611Z,18.33
2023-03-12T12:59:52.570Z,18.65
2023-03-12T13:02:48.945Z,18.71
2023-03-12T13:06:05.035Z,18.43
2023-03-12T13:09:16.531Z,18.00
2023-03-12T13:12:30.418Z,17.58
2023-03-12T13:15:40.114Z,16.83
2023-03-12T13:18:33.395Z,16.15
2023-03-12T13:21:31.976Z,15.59
2023-03-12T13:24:31.090Z,15.12
2023-03-12T13:27:26.234Z,14.74
2023-03-12T13:30:51.395Z,14.41
2023-03-12T13:33:46.215Z,13.94
2023-03-12T13:36:39.712Z,13.58
2023-03-12T13:39:36.554Z,13.42
2023-03-12T13:42:41.859Z,13.27
2023-03-12T13:45:35.396Z,13.05
2023-03-12T13:48:28.183Z,12.82
2023-03-12T13:51:24.250Z,12.53
2023-03-12T13:54:20.222Z,12.37
2023-03-12T13:57:27.162Z,12.15
2023-03-12T14:00:25.688Z,12.05
2023-03-12T14:03:22.551Z,11.92
2023-03-12T14:06:19.338Z,11.82
2023-03-12T14:09:24.073Z,11.79
2023-03-12T14:12:23.658Z,11.66
2023-03-12T14:15:26.521Z,11.56
2023-03-12T14:18:22.382Z,11.34
2023-03-12T14:21:01.492Z,11.14
2023-03-12T14:23:57.724Z,11.01
2023-03-12T14:26:50.029Z,10.97
2023-03-12T14:29:47.933Z,10.87
2023-03-12T14:32:41.426Z,10.74
2023-03-12T14:35:40.694Z,10.60
2023-03-12T14:38:36.196Z,10.53
2023-03-12T14:41:31.252Z,10.43
2023-03-12T14:44:27.033Z,10.32
2023-03-12T14:47:20.654Z,10.28
2023-03-12T14:50:21.523Z,10.16
2023-03-12T14:53:24.481Z,10.05
2023-03-12T14:56:24.702Z,9.98
2023-03-12T14:59:32.145Z,9.84
2023-03-12T15:02:15.769Z,9.61
2023-03-12T15:05:17.034Z,9.55
2023-03-12T15:08:12.661Z,9.46
2023-03-12T15:11:04.938Z,9.41
2023-03-12T15:14:03.219Z,9.36
2023-03-12T15:16:55.693Z,9.15
2023-03-12T15:19:50.368Z,9.06
2023-03-12T15:22:43.174Z,8.97
2023-03-12T15:25:36.592Z,8.91
2023-03-12T15:28:30.291Z,8.78
2023-03-12T15:31:22.627Z,8.59
2023-03-12T15:34:27.224Z,8.44
2023-03-12T15:37:29.715Z,8.36
2023-03-12T15:40:24.728Z,8.29
2023-03-12T15:43:25.136Z,8.27
2023-03-12T15:46:20.199Z,8.22
2023-03-12T15:49:25.004Z,8.18
2023-03-12T15:52:32.180Z,8.14
2023-03-12T15:55:29.394Z,8.13
2023-03-12T15:58:29.872Z,8.02
2023-03-12T16:01:24.052Z,7.95
2023-03-12T16:04:16.612Z,7.87
2023-03-12T16:07:14.885Z,7.80
2023-03-12T16:10:08.581Z,7.66
2023-03-12T16:13:04.825Z,7.53
2023-03-12T16:15:57.703Z,7.43
2023-03-12T16:18:49.827Z,7.37
2023-03-12T16:21:42.126Z,7.29
2023-03-12T16:24:34.097Z,7.21
2023-03-12T16:27:18.078Z,7.17
2023-03-12T16:30:19.515Z,7.14
2023-03-12T16:33:17.123Z,7.01
2023-03-12T16:36:15.795Z,6.91
2023-03-12T16:39:07.975Z,6.81
2023-03-12T16:41:50.703Z,6.72
2023-03-12T16:44:46.191Z,6.72
2023-03-12T16:47:38.769Z,6.67
2023-03-12T16:50:31.320Z,6.67
2023-03-12T16:53:25.191Z,6.61
2023-03-12T16:56:20.336Z,6.55
2023-03-12T16:59:18.463Z,6.51
2023-03-12T17:02:18.144Z,6.50
2023-03-12T17:05:11.156Z,6.48
2023-03-12T17:08:03.674Z,6.47
2023-03-12T17:10:56.683Z,6.47
2023-03-12T17:13:51.690Z,6.47
2023-03-12T17:16:43.831Z,6.41
2023-03-12T17:19:35.932Z,6.37
2023-03-12T17:22:28.599Z,6.32
2023-03-12T17:25:23.975Z,6.26
2023-03-12T17:28:16.420Z,6.16
2023-03-12T17:31:08.976Z,6.03
2023-03-12T17:34:03.951Z,5.93
2023-03-12T17:36:56.223Z,5.91
2023-03-12T17:39:48.876Z,5.89
2023-03-12T17:42:37.330Z,5.83
2023-03-12T17:45:29.666Z,5.77
2023-03-12T17:48:23.496Z,5.71
2023-03-12T17:51:15.480Z,5.67
2023-03-12T17:54:07.543Z,5.66
2023-03-12T17:56:59.564Z,5.62
2023-03-12T17:59:51.964Z,5.61
2023-03-12T18:02:44.471Z,5.62
2023-03-12T18:05:39.032Z,5.58
2023-03-12T18:08:31.244Z,5.51
2023-03-12T18:11:06.166Z,5.47
2023-03-12T18:13:58.134Z,5.43
2023-03-12T18:16:50.084Z,5.42
2023-03-12T18:19:42.393Z,5.40
2023-03-12T18:22:34.654Z,5.37
2023-03-12T18:25:26.672Z,5.35
2023-03-12T18:28:19.299Z,5.33
2023-03-12T18:31:11.440Z,5.33
2023-03-12T18:34:03.658Z,5.35
2023-03-12T18:36:55.702Z,5.32
2023-03-12T18:39:39.073Z,5.30
2023-03-12T18:42:31.036Z,5.29
2023-03-12T18:45:05.780Z,5.28
2023-03-12T18:47:56.194Z,5.26
2023-03-12T18:50:48.451Z,5.23
2023-03-12T18:53:40.607Z,5.21
2023-03-12T18:56:32.796Z,5.18
2023-03-12T18:59:25.246Z,5.15
2023-03-12T19:02:17.784Z,5.12
2023-03-12T19:04:58.652Z,5.11
2023-03-12T19:07:50.988Z,5.10
2023-03-12T19:10:46.063Z,5.08
2023-03-12T19:13:38.120Z,5.12
2023-03-12T19:16:30.953Z,5.16
2023-03-12T19:19:23.140Z,5.16
2023-03-12T19:22:15.168Z,5.15
2023-03-12T19:25:08.135Z,5.16
2023-03-12T19:28:00.177Z,5.13
2023-03-12T19:30:52.202Z,5.13
2023-03-12T19:33:44.866Z,5.14
2023-03-12T19:36:37.012Z,5.12
2023-03-12T19:39:29.508Z,5.14
2023-03-12T19:42:21.924Z,5.13
2023-03-12T19:45:14.851Z,5.13
2023-03-12T19:48:08.623Z,5.15
2023-03-12T19:51:05.977Z,5.14
2023-03-12T19:54:00.297Z,5.11
2023-03-12T19:56:53.465Z,5.12
2023-03-12T19:59:47.268Z,5.08
2023-03-12T20:02:41.846Z,5.05
2023-03-12T20:05:36.720Z,5.03
2023-03-12T20:08:33.701Z,5.01
2023-03-12T20:11:27.188Z,5.00
2023-03-12T20:14:20.420Z,5.01
2023-03-12T20:17:13.687Z,5.02
2023-03-12T20:20:08.890Z,5.01
2023-03-12T20:22:56.227Z,5.03
2023-03-12T20:25:50.882Z,5.02
2023-03-12T20:28:43.178Z,5.02
2023-03-12T20:31:35.708Z,4.99
2023-03-12T20:34:28.159Z,4.96
2023-03-12T20:37:20.846Z,4.96
2023-03-12T20:40:14.568Z,4.94
2023-03-12T20:43:06.736Z,4.95
2023-03-12T20:45:59.028Z,4.96
2023-03-12T20:48:51.185Z,4.97
2023-03-12T20:51:44.614Z,4.98
2023-03-12T20:54:36.628Z,5.01
2023-03-12T20:57:28.939Z,5.02
2023-03-12T21:00:22.438Z,5.01
2023-03-12T21:03:16.836Z,5.03
2023-03-12T21:06:09.265Z,5.05
2023-03-12T21:09:01.319Z,5.08
2023-03-12T21:11:53.548Z,5.10
2023-03-12T21:14:45.492Z,5.10
2023-03-12T21:17:38.863Z,5.03
2023-03-12T21:20:30.941Z,5.00
2023-03-12T21:23:23.001Z,5.02
2023-03-12T21:26:15.042Z,5.02
2023-03-12T21:29:07.136Z,5.03
2023-03-12T21:31:59.122Z,5.04
2023-03-12T21:34:51.956Z,5.07
2023-03-12T21:37:44.018Z,5.10
2023-03-12T21:40:37.666Z,5.11
2023-03-12T21:43:31.171Z,5.13
2023-03-12T21:46:24.865Z,5.12
2023-03-12T21:49:18.249Z,5.09
2023-03-12T21:52:10.379Z,5.08
2023-03-12T21:55:02.339Z,5.06
2023-03-12T21:57:54.372Z,5.07
2023-03-12T22:00:46.382Z,5.09
2023-03-12T22:03:39.104Z,5.10
2023-03-12T22:06:31.226Z,5.11
2023-03-12T22:09:23.280Z,5.11
2023-03-12T22:12:15.282Z,5.10
2023-03-12T22:15:08.991Z,5.08
2023-03-12T22:18:01.011Z,5.07
2023-03-12T22:20:57.905Z,5.06
2023-03-12T22:23:52.364Z,5.07
2023-03-12T22:26:44.418Z,5.08
2023-03-12T22:29:37.516Z,5.08
2023-03-12T22:32:30.279Z,5.04
2023-03-12T22:35:25.926Z,5.02
2023-03-12T22:38:17.970Z,5.01
2023-03-12T22:41:18.790Z,5.00
2023-03-12T22:44:10.841Z,5.00
2023-03-12T22:47:02.889Z,5.00
2023-03-12T22:49:57.588Z,5.02
2023-03-12T22:52:49.624Z,5.02
2023-03-12T22:55:41.562Z,5.04
2023-03-12T22:58:34.315Z,5.09
2023-03-12T23:01:26.786Z,5.14
2023-03-12T23:04:18.883Z,5.18
2023-03-12T23:07:14.484Z,5.22
2023-03-12T23:10:10.815Z,5.24
2023-03-12T23:13:02.813Z,5.29
2023-03-12T23:15:54.905Z,5.35
2023-03-12T23:18:47.724Z,5.40
2023-03-12T23:21:39.646Z,5.46
2023-03-12T23:24:33.369Z,5.50
2023-03-12T23:27:25.335Z,5.53
2023-03-12T23:30:18.202Z,5.56
2023-03-12T23:33:10.194Z,5.60
2023-03-12T23:36:04.349Z,5.66
2023-03-12T23:38:56.853Z,5.71
2023-03-12T23:41:48.872Z,5.74
2023-03-12T23:44:40.902Z,5.78
2023-03-12T23:47:32.948Z,5.81
2023-03-12T23:50:24.916Z,5.81
2023-03-12T23:53:17.049Z,5.85
2023-03-12T23:56:11.579Z,5.87
2023-03-12T23:59:05.144Z,5.89
